sensor_id;sensor_type;location;lat;lon;timestamp;P1;durP1;ratioP1;P2;durP2;ratioP2
1613;SDS011;800;48.824;9.346;2023-12-04T00:02:19;19.50;;;10.70;;
1613;SDS011;800;48.824;9.346;2023-12-04T00:04:45;19.27;;;11.30;;
1613;SDS011;800;48.824;9.346;2023-12-04T00:07:10;16.40;;;10.77;;
1613;SDS011;800;48.824;9.346;2023-12-04T00:09:36;15.47;;;8.90;;
1613;SDS011;800;48.824;9.346;2023-12-04T00:12:01;15.70;;;10.73;;
1613;SDS011;800;48.824;9.346;2023-12-04T00:14:27;13.93;;;10.20;;
1613;SDS011;800;48.824;9.346;2023-12-04T00:16:53;19.10;;;11.50;;
1613;SDS011;800;48.824;9.346;2023-12-04T00:19:18;19.47;;;12.13;;
1613;SDS011;800;48.824;9.346;2023-12-04T00:21:44;18.17;;;11.67;;
1613;SDS011;800;48.824;9.346;2023-12-04T00:24:09;15.23;;;9.77;;
1613;SDS011;800;48.824;9.346;2023-12-04T00:26:35;15.00;;;10.07;;
1613;SDS011;800;48.824;9.346;2023-12-04T00:29:00;15.47;;;9.87;;
1613;SDS011;800;48.824;9.346;2023-12-04T00:31:26;15.93;;;9.50;;
1613;SDS011;800;48.824;9.346;2023-12-04T00:33:51;17.60;;;10.50;;
1613;SDS011;800;48.824;9.346;2023-12-04T00:36:17;15.83;;;9.57;;
1613;SDS011;800;48.824;9.346;2023-12-04T00:38:44;13.43;;;9.60;;
1613;SDS011;800;48.824;9.346;2023-12-04T00:41:10;16.90;;;10.17;;
1613;SDS011;800;48.824;9.346;2023-12-04T00:43:36;16.50;;;9.93;;
1613;SDS011;800;48.824;9.346;2023-12-04T00:46:02;16.10;;;9.33;;
1613;SDS011;800;48.824;9.346;2023-12-04T00:48:28;15.17;;;9.10;;
1613;SDS011;800;48.824;9.346;2023-12-04T00:50:54;19.10;;;10.90;;
1613;SDS011;800;48.824;9.346;2023-12-04T00:53:20;17.37;;;10.57;;
1613;SDS011;800;48.824;9.346;2023-12-04T00:55:45;16.43;;;9.70;;
1613;SDS011;800;48.824;9.346;2023-12-04T00:58:11;16.67;;;9.90;;
1613;SDS011;800;48.824;9.346;2023-12-04T01:00:37;19.73;;;10.37;;
1613;SDS011;800;48.824;9.346;2023-12-04T01:03:03;13.57;;;9.50;;
1613;SDS011;800;48.824;9.346;2023-12-04T01:05:28;14.93;;;10.10;;
1613;SDS011;800;48.824;9.346;2023-12-04T01:07:54;12.97;;;9.00;;
1613;SDS011;800;48.824;9.346;2023-12-04T01:10:19;16.87;;;9.70;;
1613;SDS011;800;48.824;9.346;2023-12-04T01:12:45;16.70;;;9.83;;
1613;SDS011;800;48.824;9.346;2023-12-04T01:15:11;15.90;;;9.63;;
1613;SDS011;800;48.824;9.346;2023-12-04T01:17:36;15.17;;;8.40;;
1613;SDS011;800;48.824;9.346;2023-12-04T01:20:02;11.20;;;8.07;;
1613;SDS011;800;48.824;9.346;2023-12-04T01:22:28;13.00;;;8.83;;
1613;SDS011;800;48.824;9.346;2023-12-04T01:24:53;11.67;;;8.33;;
1613;SDS011;800;48.824;9.346;2023-12-04T01:27:19;15.97;;;9.33;;
1613;SDS011;800;48.824;9.346;2023-12-04T01:29:44;16.87;;;8.90;;
1613;SDS011;800;48.824;9.346;2023-12-04T01:32:10;12.33;;;8.33;;
1613;SDS011;800;48.824;9.346;2023-12-04T01:34:35;19.77;;;9.37;;
1613;SDS011;800;48.824;9.346;2023-12-04T01:37:01;14.30;;;9.80;;
1613;SDS011;800;48.824;9.346;2023-12-04T01:39:26;15.60;;;9.10;;
1613;SDS011;800;48.824;9.346;2023-12-04T01:41:52;15.30;;;9.20;;
1613;SDS011;800;48.824;9.346;2023-12-04T01:44:18;14.00;;;8.50;;
1613;SDS011;800;48.824;9.346;2023-12-04T01:46:44;12.27;;;8.40;;
1613;SDS011;800;48.824;9.346;2023-12-04T01:49:10;13.70;;;9.30;;
1613;SDS011;800;48.824;9.346;2023-12-04T01:51:35;9.57;;;7.63;;
1613;SDS011;800;48.824;9.346;2023-12-04T01:54:02;12.17;;;8.07;;
1613;SDS011;800;48.824;9.346;2023-12-04T01:56:29;17.10;;;8.77;;
1613;SDS011;800;48.824;9.346;2023-12-04T01:58:55;15.20;;;8.83;;
1613;SDS011;800;48.824;9.346;2023-12-04T02:01:21;14.47;;;8.97;;
1613;SDS011;800;48.824;9.346;2023-12-04T02:03:48;14.40;;;9.30;;
1613;SDS011;800;48.824;9.346;2023-12-04T02:06:14;14.30;;;9.60;;
1613;SDS011;800;48.824;9.346;2023-12-04T02:08:42;16.90;;;9.80;;
1613;SDS011;800;48.824;9.346;2023-12-04T02:11:08;13.43;;;9.17;;
1613;SDS011;800;48.824;9.346;2023-12-04T02:13:34;18.80;;;9.00;;
1613;SDS011;800;48.824;9.346;2023-12-04T02:16:01;17.60;;;10.80;;
1613;SDS011;800;48.824;9.346;2023-12-04T02:18:32;15.43;;;9.63;;
1613;SDS011;800;48.824;9.346;2023-12-04T02:21:00;15.43;;;9.57;;
1613;SDS011;800;48.824;9.346;2023-12-04T02:23:26;14.80;;;9.30;;
1613;SDS011;800;48.824;9.346;2023-12-04T02:25:53;14.97;;;9.40;;
1613;SDS011;800;48.824;9.346;2023-12-04T02:28:24;17.17;;;9.43;;
1613;SDS011;800;48.824;9.346;2023-12-04T02:30:53;15.53;;;9.23;;
1613;SDS011;800;48.824;9.346;2023-12-04T02:33:20;12.60;;;9.40;;
1613;SDS011;800;48.824;9.346;2023-12-04T02:35:49;14.90;;;8.50;;
1613;SDS011;800;48.824;9.346;2023-12-04T02:38:16;13.60;;;8.47;;
1613;SDS011;800;48.824;9.346;2023-12-04T02:40:42;13.20;;;8.27;;
1613;SDS011;800;48.824;9.346;2023-12-04T02:43:08;13.20;;;8.77;;
1613;SDS011;800;48.824;9.346;2023-12-04T02:45:34;13.63;;;9.03;;
1613;SDS011;800;48.824;9.346;2023-12-04T02:47:59;14.23;;;8.87;;
1613;SDS011;800;48.824;9.346;2023-12-04T02:50:25;14.80;;;9.00;;
1613;SDS011;800;48.824;9.346;2023-12-04T02:52:50;13.27;;;8.97;;
1613;SDS011;800;48.824;9.346;2023-12-04T02:55:16;13.90;;;7.70;;
1613;SDS011;800;48.824;9.346;2023-12-04T02:57:42;12.20;;;8.27;;
1613;SDS011;800;48.824;9.346;2023-12-04T03:00:07;13.93;;;8.13;;
1613;SDS011;800;48.824;9.346;2023-12-04T03:02:34;13.00;;;8.20;;
1613;SDS011;800;48.824;9.346;2023-12-04T03:05:00;15.23;;;8.73;;
1613;SDS011;800;48.824;9.346;2023-12-04T03:07:25;14.00;;;7.93;;
1613;SDS011;800;48.824;9.346;2023-12-04T03:09:51;12.43;;;7.87;;
1613;SDS011;800;48.824;9.346;2023-12-04T03:12:17;10.60;;;7.67;;
1613;SDS011;800;48.824;9.346;2023-12-04T03:14:42;11.13;;;8.10;;
1613;SDS011;800;48.824;9.346;2023-12-04T03:17:08;10.47;;;6.83;;
1613;SDS011;800;48.824;9.346;2023-12-04T03:19:33;12.90;;;7.77;;
1613;SDS011;800;48.824;9.346;2023-12-04T03:21:59;14.70;;;9.40;;
1613;SDS011;800;48.824;9.346;2023-12-04T03:24:26;11.37;;;8.13;;
1613;SDS011;800;48.824;9.346;2023-12-04T03:26:51;12.50;;;7.83;;
1613;SDS011;800;48.824;9.346;2023-12-04T03:29:17;14.30;;;7.50;;
1613;SDS011;800;48.824;9.346;2023-12-04T03:31:43;10.30;;;7.60;;
1613;SDS011;800;48.824;9.346;2023-12-04T03:34:08;13.97;;;8.63;;
1613;SDS011;800;48.824;9.346;2023-12-04T03:36:34;13.33;;;7.67;;
1613;SDS011;800;48.824;9.346;2023-12-04T03:39:00;11.60;;;7.90;;
1613;SDS011;800;48.824;9.346;2023-12-04T03:41:25;12.13;;;7.93;;
1613;SDS011;800;48.824;9.346;2023-12-04T03:43:51;13.90;;;8.70;;
1613;SDS011;800;48.824;9.346;2023-12-04T03:46:16;15.33;;;7.90;;
1613;SDS011;800;48.824;9.346;2023-12-04T03:48:42;13.07;;;7.93;;
1613;SDS011;800;48.824;9.346;2023-12-04T03:51:07;13.17;;;7.77;;
1613;SDS011;800;48.824;9.346;2023-12-04T03:53:33;12.40;;;7.73;;
1613;SDS011;800;48.824;9.346;2023-12-04T03:55:58;10.73;;;7.40;;
1613;SDS011;800;48.824;9.346;2023-12-04T03:58:24;12.00;;;7.63;;
1613;SDS011;800;48.824;9.346;2023-12-04T04:00:50;11.07;;;8.10;;
1613;SDS011;800;48.824;9.346;2023-12-04T04:03:15;13.63;;;7.77;;
1613;SDS011;800;48.824;9.346;2023-12-04T04:05:41;9.63;;;6.33;;
1613;SDS011;800;48.824;9.346;2023-12-04T04:08:06;10.90;;;6.47;;
1613;SDS011;800;48.824;9.346;2023-12-04T04:10:32;10.57;;;7.13;;
1613;SDS011;800;48.824;9.346;2023-12-04T04:12:58;10.50;;;7.10;;
1613;SDS011;800;48.824;9.346;2023-12-04T04:15:25;8.67;;;6.90;;
1613;SDS011;800;48.824;9.346;2023-12-04T04:17:50;10.63;;;7.07;;
1613;SDS011;800;48.824;9.346;2023-12-04T04:20:16;11.27;;;7.63;;
1613;SDS011;800;48.824;9.346;2023-12-04T04:22:42;10.50;;;7.80;;
1613;SDS011;800;48.824;9.346;2023-12-04T04:25:08;9.57;;;7.60;;
1613;SDS011;800;48.824;9.346;2023-12-04T04:27:34;13.37;;;9.60;;
1613;SDS011;800;48.824;9.346;2023-12-04T04:30:00;13.83;;;9.30;;
1613;SDS011;800;48.824;9.346;2023-12-04T04:32:26;11.67;;;7.43;;
1613;SDS011;800;48.824;9.346;2023-12-04T04:34:51;10.30;;;7.53;;
1613;SDS011;800;48.824;9.346;2023-12-04T04:37:17;12.60;;;8.43;;
1613;SDS011;800;48.824;9.346;2023-12-04T04:39:42;10.33;;;7.33;;
1613;SDS011;800;48.824;9.346;2023-12-04T04:42:08;9.30;;;7.33;;
1613;SDS011;800;48.824;9.346;2023-12-04T04:44:34;9.87;;;7.23;;
1613;SDS011;800;48.824;9.346;2023-12-04T04:46:59;10.83;;;7.50;;
1613;SDS011;800;48.824;9.346;2023-12-04T04:49:25;10.77;;;7.07;;
1613;SDS011;800;48.824;9.346;2023-12-04T04:51:50;13.30;;;7.73;;
1613;SDS011;800;48.824;9.346;2023-12-04T04:54:16;9.03;;;6.20;;
1613;SDS011;800;48.824;9.346;2023-12-04T04:56:41;10.53;;;7.10;;
1613;SDS011;800;48.824;9.346;2023-12-04T04:59:07;11.80;;;6.80;;
1613;SDS011;800;48.824;9.346;2023-12-04T05:01:33;10.33;;;7.13;;
1613;SDS011;800;48.824;9.346;2023-12-04T05:03:58;10.27;;;7.00;;
1613;SDS011;800;48.824;9.346;2023-12-04T05:06:24;11.10;;;6.47;;
1613;SDS011;800;48.824;9.346;2023-12-04T05:08:50;10.67;;;6.00;;
1613;SDS011;800;48.824;9.346;2023-12-04T05:11:17;9.17;;;6.23;;
1613;SDS011;800;48.824;9.346;2023-12-04T05:13:44;10.50;;;6.50;;
1613;SDS011;800;48.824;9.346;2023-12-04T05:16:10;9.90;;;6.67;;
1613;SDS011;800;48.824;9.346;2023-12-04T05:18:35;9.93;;;5.80;;
1613;SDS011;800;48.824;9.346;2023-12-04T05:21:01;9.10;;;6.10;;
1613;SDS011;800;48.824;9.346;2023-12-04T05:23:27;10.33;;;6.97;;
1613;SDS011;800;48.824;9.346;2023-12-04T05:25:53;9.70;;;6.53;;
1613;SDS011;800;48.824;9.346;2023-12-04T05:28:18;11.00;;;6.17;;
1613;SDS011;800;48.824;9.346;2023-12-04T05:30:44;8.87;;;5.80;;
1613;SDS011;800;48.824;9.346;2023-12-04T05:33:10;9.03;;;6.90;;
1613;SDS011;800;48.824;9.346;2023-12-04T05:35:35;11.47;;;7.27;;
1613;SDS011;800;48.824;9.346;2023-12-04T05:38:02;9.53;;;6.80;;
1613;SDS011;800;48.824;9.346;2023-12-04T05:40:28;11.80;;;7.57;;
1613;SDS011;800;48.824;9.346;2023-12-04T05:42:53;16.97;;;8.20;;
1613;SDS011;800;48.824;9.346;2023-12-04T05:45:19;10.40;;;7.40;;
1613;SDS011;800;48.824;9.346;2023-12-04T05:47:45;13.50;;;8.33;;
1613;SDS011;800;48.824;9.346;2023-12-04T05:50:10;9.70;;;6.20;;
1613;SDS011;800;48.824;9.346;2023-12-04T05:52:36;8.23;;;5.97;;
1613;SDS011;800;48.824;9.346;2023-12-04T05:55:02;10.70;;;6.77;;
1613;SDS011;800;48.824;9.346;2023-12-04T05:57:28;12.03;;;7.77;;
1613;SDS011;800;48.824;9.346;2023-12-04T05:59:53;10.03;;;7.53;;
1613;SDS011;800;48.824;9.346;2023-12-04T06:02:20;8.53;;;6.07;;
1613;SDS011;800;48.824;9.346;2023-12-04T06:04:45;8.40;;;6.10;;
1613;SDS011;800;48.824;9.346;2023-12-04T06:07:11;10.60;;;6.80;;
1613;SDS011;800;48.824;9.346;2023-12-04T06:09:36;7.83;;;5.53;;
1613;SDS011;800;48.824;9.346;2023-12-04T06:12:02;7.27;;;5.90;;
1613;SDS011;800;48.824;9.346;2023-12-04T06:14:34;10.10;;;6.60;;
1613;SDS011;800;48.824;9.346;2023-12-04T06:17:00;10.73;;;6.63;;
1613;SDS011;800;48.824;9.346;2023-12-04T06:19:27;11.27;;;6.80;;
1613;SDS011;800;48.824;9.346;2023-12-04T06:21:53;8.70;;;5.53;;
1613;SDS011;800;48.824;9.346;2023-12-04T06:24:19;8.83;;;6.53;;
1613;SDS011;800;48.824;9.346;2023-12-04T06:26:45;6.57;;;4.80;;
1613;SDS011;800;48.824;9.346;2023-12-04T06:29:15;9.03;;;6.60;;
1613;SDS011;800;48.824;9.346;2023-12-04T06:31:40;8.03;;;5.50;;
1613;SDS011;800;48.824;9.346;2023-12-04T06:34:06;10.90;;;7.17;;
1613;SDS011;800;48.824;9.346;2023-12-04T06:36:34;11.63;;;5.73;;
1613;SDS011;800;48.824;9.346;2023-12-04T06:39:02;9.30;;;6.40;;
1613;SDS011;800;48.824;9.346;2023-12-04T06:41:34;10.60;;;5.60;;
1613;SDS011;800;48.824;9.346;2023-12-04T06:44:00;10.40;;;6.47;;
1613;SDS011;800;48.824;9.346;2023-12-04T06:46:26;8.57;;;5.50;;
1613;SDS011;800;48.824;9.346;2023-12-04T06:48:54;9.43;;;6.20;;
1613;SDS011;800;48.824;9.346;2023-12-04T06:51:22;9.80;;;6.27;;
1613;SDS011;800;48.824;9.346;2023-12-04T06:53:47;5.93;;;4.97;;
1613;SDS011;800;48.824;9.346;2023-12-04T06:56:15;8.67;;;5.17;;
1613;SDS011;800;48.824;9.346;2023-12-04T06:58:40;11.37;;;5.90;;
1613;SDS011;800;48.824;9.346;2023-12-04T07:01:06;8.40;;;5.77;;
1613;SDS011;800;48.824;9.346;2023-12-04T07:03:32;8.40;;;5.77;;
1613;SDS011;800;48.824;9.346;2023-12-04T07:05:57;10.93;;;7.00;;
1613;SDS011;800;48.824;9.346;2023-12-04T07:08:23;12.97;;;6.20;;
1613;SDS011;800;48.824;9.346;2023-12-04T07:10:48;9.33;;;6.17;;
1613;SDS011;800;48.824;9.346;2023-12-04T07:13:14;10.13;;;7.60;;
1613;SDS011;800;48.824;9.346;2023-12-04T07:15:39;9.97;;;6.27;;
1613;SDS011;800;48.824;9.346;2023-12-04T07:18:05;10.10;;;6.40;;
1613;SDS011;800;48.824;9.346;2023-12-04T07:20:30;8.90;;;6.00;;
1613;SDS011;800;48.824;9.346;2023-12-04T07:22:56;11.20;;;7.57;;
1613;SDS011;800;48.824;9.346;2023-12-04T07:25:23;13.33;;;7.20;;
1613;SDS011;800;48.824;9.346;2023-12-04T07:27:49;12.23;;;7.33;;
1613;SDS011;800;48.824;9.346;2023-12-04T07:30:14;11.70;;;7.13;;
1613;SDS011;800;48.824;9.346;2023-12-04T07:32:40;10.37;;;6.33;;
1613;SDS011;800;48.824;9.346;2023-12-04T07:35:06;8.83;;;6.10;;
1613;SDS011;800;48.824;9.346;2023-12-04T07:37:32;14.80;;;7.40;;
1613;SDS011;800;48.824;9.346;2023-12-04T07:39:58;12.20;;;6.40;;
1613;SDS011;800;48.824;9.346;2023-12-04T07:42:24;10.70;;;6.77;;
1613;SDS011;800;48.824;9.346;2023-12-04T07:44:49;12.97;;;7.47;;
1613;SDS011;800;48.824;9.346;2023-12-04T07:47:15;15.60;;;8.40;;
1613;SDS011;800;48.824;9.346;2023-12-04T07:49:41;8.40;;;6.10;;
1613;SDS011;800;48.824;9.346;2023-12-04T07:52:07;10.10;;;6.43;;
1613;SDS011;800;48.824;9.346;2023-12-04T07:54:33;9.73;;;6.57;;
1613;SDS011;800;48.824;9.346;2023-12-04T07:56:59;9.53;;;5.80;;
1613;SDS011;800;48.824;9.346;2023-12-04T07:59:24;9.00;;;5.97;;
1613;SDS011;800;48.824;9.346;2023-12-04T08:01:50;10.50;;;6.33;;
1613;SDS011;800;48.824;9.346;2023-12-04T08:04:16;9.77;;;6.80;;
1613;SDS011;800;48.824;9.346;2023-12-04T08:06:42;9.50;;;6.03;;
1613;SDS011;800;48.824;9.346;2023-12-04T08:09:07;14.17;;;7.00;;
1613;SDS011;800;48.824;9.346;2023-12-04T08:11:35;11.97;;;8.43;;
1613;SDS011;800;48.824;9.346;2023-12-04T08:14:01;10.13;;;6.37;;
1613;SDS011;800;48.824;9.346;2023-12-04T08:16:26;13.30;;;8.53;;
1613;SDS011;800;48.824;9.346;2023-12-04T08:18:54;12.23;;;7.17;;
1613;SDS011;800;48.824;9.346;2023-12-04T08:21:19;10.47;;;6.53;;
1613;SDS011;800;48.824;9.346;2023-12-04T08:23:45;12.77;;;7.27;;
1613;SDS011;800;48.824;9.346;2023-12-04T08:26:10;10.00;;;6.70;;
1613;SDS011;800;48.824;9.346;2023-12-04T08:28:36;8.23;;;6.30;;
1613;SDS011;800;48.824;9.346;2023-12-04T08:31:06;11.60;;;6.47;;
1613;SDS011;800;48.824;9.346;2023-12-04T08:33:33;9.83;;;6.43;;
1613;SDS011;800;48.824;9.346;2023-12-04T08:35:59;8.10;;;6.50;;
1613;SDS011;800;48.824;9.346;2023-12-04T08:38:25;9.73;;;6.90;;
1613;SDS011;800;48.824;9.346;2023-12-04T08:40:51;9.20;;;5.60;;
1613;SDS011;800;48.824;9.346;2023-12-04T08:43:16;8.70;;;6.03;;
1613;SDS011;800;48.824;9.346;2023-12-04T08:45:43;10.30;;;5.83;;
1613;SDS011;800;48.824;9.346;2023-12-04T08:48:08;8.03;;;6.10;;
1613;SDS011;800;48.824;9.346;2023-12-04T08:50:35;10.63;;;6.80;;
1613;SDS011;800;48.824;9.346;2023-12-04T08:53:01;7.00;;;5.50;;
1613;SDS011;800;48.824;9.346;2023-12-04T08:55:27;10.10;;;6.70;;
1613;SDS011;800;48.824;9.346;2023-12-04T08:57:53;10.20;;;6.27;;
1613;SDS011;800;48.824;9.346;2023-12-04T09:00:19;10.43;;;7.10;;
1613;SDS011;800;48.824;9.346;2023-12-04T09:02:44;11.60;;;8.13;;
1613;SDS011;800;48.824;9.346;2023-12-04T09:05:10;8.63;;;6.20;;
1613;SDS011;800;48.824;9.346;2023-12-04T09:07:36;9.93;;;6.97;;
1613;SDS011;800;48.824;9.346;2023-12-04T09:10:02;10.97;;;7.03;;
1613;SDS011;800;48.824;9.346;2023-12-04T09:12:27;10.40;;;6.30;;
1613;SDS011;800;48.824;9.346;2023-12-04T09:14:53;10.33;;;6.50;;
1613;SDS011;800;48.824;9.346;2023-12-04T09:17:18;9.50;;;6.37;;
1613;SDS011;800;48.824;9.346;2023-12-04T09:19:45;9.80;;;6.63;;
1613;SDS011;800;48.824;9.346;2023-12-04T09:22:11;8.70;;;6.93;;
1613;SDS011;800;48.824;9.346;2023-12-04T09:24:36;9.57;;;6.73;;
1613;SDS011;800;48.824;9.346;2023-12-04T09:27:02;10.20;;;6.53;;
1613;SDS011;800;48.824;9.346;2023-12-04T09:29:28;15.63;;;8.33;;
1613;SDS011;800;48.824;9.346;2023-12-04T09:31:54;7.30;;;6.17;;
1613;SDS011;800;48.824;9.346;2023-12-04T09:34:20;8.70;;;6.70;;
1613;SDS011;800;48.824;9.346;2023-12-04T09:36:46;9.60;;;6.73;;
1613;SDS011;800;48.824;9.346;2023-12-04T09:39:13;9.90;;;6.70;;
1613;SDS011;800;48.824;9.346;2023-12-04T09:41:39;9.50;;;6.10;;
1613;SDS011;800;48.824;9.346;2023-12-04T09:44:07;9.53;;;7.30;;
1613;SDS011;800;48.824;9.346;2023-12-04T09:46:33;11.03;;;7.50;;
1613;SDS011;800;48.824;9.346;2023-12-04T09:48:59;13.93;;;7.97;;
1613;SDS011;800;48.824;9.346;2023-12-04T09:51:25;10.73;;;7.07;;
1613;SDS011;800;48.824;9.346;2023-12-04T09:53:52;10.87;;;7.87;;
1613;SDS011;800;48.824;9.346;2023-12-04T09:56:20;12.97;;;7.80;;
1613;SDS011;800;48.824;9.346;2023-12-04T09:58:47;10.13;;;6.93;;
1613;SDS011;800;48.824;9.346;2023-12-04T10:01:23;11.77;;;7.60;;
1613;SDS011;800;48.824;9.346;2023-12-04T10:03:49;9.93;;;7.00;;
1613;SDS011;800;48.824;9.346;2023-12-04T10:06:15;11.47;;;8.40;;
1613;SDS011;800;48.824;9.346;2023-12-04T10:08:44;11.70;;;7.83;;
1613;SDS011;800;48.824;9.346;2023-12-04T10:11:12;10.60;;;7.50;;
1613;SDS011;800;48.824;9.346;2023-12-04T10:13:40;9.53;;;7.00;;
1613;SDS011;800;48.824;9.346;2023-12-04T10:16:06;12.73;;;7.73;;
1613;SDS011;800;48.824;9.346;2023-12-04T10:18:32;12.27;;;9.43;;
1613;SDS011;800;48.824;9.346;2023-12-04T10:20:59;10.63;;;7.77;;
1613;SDS011;800;48.824;9.346;2023-12-04T10:23:37;14.90;;;8.30;;
1613;SDS011;800;48.824;9.346;2023-12-04T10:26:05;19.93;;;9.80;;
1613;SDS011;800;48.824;9.346;2023-12-04T10:28:32;14.30;;;8.73;;
1613;SDS011;800;48.824;9.346;2023-12-04T10:30:57;14.07;;;9.40;;
1613;SDS011;800;48.824;9.346;2023-12-04T10:33:24;14.70;;;9.20;;
1613;SDS011;800;48.824;9.346;2023-12-04T10:35:53;11.70;;;8.57;;
1613;SDS011;800;48.824;9.346;2023-12-04T10:38:20;17.77;;;9.63;;
1613;SDS011;800;48.824;9.346;2023-12-04T10:40:46;16.70;;;8.13;;
1613;SDS011;800;48.824;9.346;2023-12-04T10:43:19;10.87;;;8.70;;
1613;SDS011;800;48.824;9.346;2023-12-04T10:45:49;13.80;;;8.70;;
1613;SDS011;800;48.824;9.346;2023-12-04T10:48:17;12.90;;;9.07;;
1613;SDS011;800;48.824;9.346;2023-12-04T10:50:44;12.60;;;9.07;;
1613;SDS011;800;48.824;9.346;2023-12-04T10:53:12;15.60;;;7.80;;
1613;SDS011;800;48.824;9.346;2023-12-04T10:55:38;10.27;;;7.90;;
1613;SDS011;800;48.824;9.346;2023-12-04T10:58:05;11.63;;;7.90;;
1613;SDS011;800;48.824;9.346;2023-12-04T11:00:37;11.73;;;8.07;;
1613;SDS011;800;48.824;9.346;2023-12-04T11:03:09;10.00;;;6.90;;
1613;SDS011;800;48.824;9.346;2023-12-04T11:05:39;12.17;;;8.57;;
1613;SDS011;800;48.824;9.346;2023-12-04T11:08:06;11.90;;;8.30;;
1613;SDS011;800;48.824;9.346;2023-12-04T11:10:35;9.80;;;7.60;;
1613;SDS011;800;48.824;9.346;2023-12-04T11:13:08;12.20;;;7.80;;
1613;SDS011;800;48.824;9.346;2023-12-04T11:15:39;14.40;;;8.67;;
1613;SDS011;800;48.824;9.346;2023-12-04T11:18:07;11.40;;;7.23;;
1613;SDS011;800;48.824;9.346;2023-12-04T11:20:39;13.50;;;9.97;;
1613;SDS011;800;48.824;9.346;2023-12-04T11:23:09;14.80;;;8.83;;
1613;SDS011;800;48.824;9.346;2023-12-04T11:25:34;10.40;;;8.13;;
1613;SDS011;800;48.824;9.346;2023-12-04T11:28:01;12.13;;;8.67;;
1613;SDS011;800;48.824;9.346;2023-12-04T11:30:28;13.33;;;8.77;;
1613;SDS011;800;48.824;9.346;2023-12-04T11:32:55;12.37;;;9.10;;
1613;SDS011;800;48.824;9.346;2023-12-04T11:35:21;12.00;;;8.23;;
1613;SDS011;800;48.824;9.346;2023-12-04T11:37:51;15.53;;;10.17;;
1613;SDS011;800;48.824;9.346;2023-12-04T11:40:17;12.27;;;7.70;;
1613;SDS011;800;48.824;9.346;2023-12-04T11:42:43;13.40;;;8.40;;
1613;SDS011;800;48.824;9.346;2023-12-04T11:45:09;12.70;;;9.40;;
1613;SDS011;800;48.824;9.346;2023-12-04T11:47:54;16.53;;;9.03;;
1613;SDS011;800;48.824;9.346;2023-12-04T11:50:21;12.77;;;9.30;;
1613;SDS011;800;48.824;9.346;2023-12-04T11:52:49;13.97;;;9.07;;
1613;SDS011;800;48.824;9.346;2023-12-04T11:55:19;16.67;;;10.03;;
1613;SDS011;800;48.824;9.346;2023-12-04T11:57:47;12.60;;;10.13;;
1613;SDS011;800;48.824;9.346;2023-12-04T12:05:19;12.30;;;9.03;;
1613;SDS011;800;48.824;9.346;2023-12-04T12:07:45;13.00;;;9.13;;
1613;SDS011;800;48.824;9.346;2023-12-04T12:10:12;13.37;;;9.20;;
1613;SDS011;800;48.824;9.346;2023-12-04T12:12:41;13.60;;;9.20;;
1613;SDS011;800;48.824;9.346;2023-12-04T12:15:08;13.73;;;9.00;;
1613;SDS011;800;48.824;9.346;2023-12-04T12:17:35;14.30;;;9.63;;
1613;SDS011;800;48.824;9.346;2023-12-04T12:20:02;14.33;;;9.47;;
1613;SDS011;800;48.824;9.346;2023-12-04T12:22:31;14.57;;;9.80;;
1613;SDS011;800;48.824;9.346;2023-12-04T12:24:58;17.03;;;9.70;;
1613;SDS011;800;48.824;9.346;2023-12-04T12:27:24;13.07;;;8.93;;
1613;SDS011;800;48.824;9.346;2023-12-04T12:29:50;15.43;;;9.73;;
1613;SDS011;800;48.824;9.346;2023-12-04T12:32:16;11.97;;;8.73;;
1613;SDS011;800;48.824;9.346;2023-12-04T12:34:41;13.33;;;8.80;;
1613;SDS011;800;48.824;9.346;2023-12-04T12:37:07;15.90;;;9.23;;
1613;SDS011;800;48.824;9.346;2023-12-04T12:39:34;13.77;;;9.23;;
1613;SDS011;800;48.824;9.346;2023-12-04T12:42:00;14.80;;;10.47;;
1613;SDS011;800;48.824;9.346;2023-12-04T12:44:26;15.17;;;10.47;;
1613;SDS011;800;48.824;9.346;2023-12-04T12:46:53;14.83;;;10.13;;
1613;SDS011;800;48.824;9.346;2023-12-04T12:49:18;16.13;;;10.37;;
1613;SDS011;800;48.824;9.346;2023-12-04T12:51:47;15.00;;;10.90;;
1613;SDS011;800;48.824;9.346;2023-12-04T12:54:13;14.47;;;9.70;;
1613;SDS011;800;48.824;9.346;2023-12-04T12:56:39;15.60;;;10.63;;
1613;SDS011;800;48.824;9.346;2023-12-04T12:59:05;20.63;;;12.53;;
1613;SDS011;800;48.824;9.346;2023-12-04T13:01:32;18.37;;;12.03;;
1613;SDS011;800;48.824;9.346;2023-12-04T13:03:58;20.13;;;12.80;;
1613;SDS011;800;48.824;9.346;2023-12-04T13:06:23;16.40;;;11.37;;
1613;SDS011;800;48.824;9.346;2023-12-04T13:08:49;26.93;;;12.90;;
1613;SDS011;800;48.824;9.346;2023-12-04T13:11:15;20.10;;;12.13;;
1613;SDS011;800;48.824;9.346;2023-12-04T13:13:40;16.83;;;11.40;;
1613;SDS011;800;48.824;9.346;2023-12-04T13:16:06;16.57;;;11.17;;
1613;SDS011;800;48.824;9.346;2023-12-04T13:18:32;17.97;;;11.10;;
1613;SDS011;800;48.824;9.346;2023-12-04T13:21:00;17.73;;;10.80;;
1613;SDS011;800;48.824;9.346;2023-12-04T13:23:26;21.90;;;12.20;;
1613;SDS011;800;48.824;9.346;2023-12-04T13:25:51;17.30;;;10.97;;
1613;SDS011;800;48.824;9.346;2023-12-04T13:28:19;13.73;;;11.00;;
1613;SDS011;800;48.824;9.346;2023-12-04T13:30:45;17.90;;;12.20;;
1613;SDS011;800;48.824;9.346;2023-12-04T13:33:10;13.27;;;9.97;;
1613;SDS011;800;48.824;9.346;2023-12-04T13:35:36;18.83;;;10.70;;
1613;SDS011;800;48.824;9.346;2023-12-04T13:38:02;25.43;;;11.97;;
1613;SDS011;800;48.824;9.346;2023-12-04T13:40:27;17.03;;;10.70;;
1613;SDS011;800;48.824;9.346;2023-12-04T13:42:57;15.23;;;10.23;;
1613;SDS011;800;48.824;9.346;2023-12-04T13:45:41;16.53;;;10.10;;
1613;SDS011;800;48.824;9.346;2023-12-04T13:48:07;16.83;;;10.60;;
1613;SDS011;800;48.824;9.346;2023-12-04T13:50:32;21.60;;;10.63;;
1613;SDS011;800;48.824;9.346;2023-12-04T13:52:58;14.50;;;10.80;;
1613;SDS011;800;48.824;9.346;2023-12-04T13:55:24;18.30;;;10.60;;
1613;SDS011;800;48.824;9.346;2023-12-04T13:58:21;21.63;;;11.27;;
1613;SDS011;800;48.824;9.346;2023-12-04T14:01:03;19.07;;;10.67;;
1613;SDS011;800;48.824;9.346;2023-12-04T14:03:38;16.37;;;11.27;;
1613;SDS011;800;48.824;9.346;2023-12-04T14:06:05;15.10;;;11.07;;
1613;SDS011;800;48.824;9.346;2023-12-04T14:08:30;14.27;;;10.07;;
1613;SDS011;800;48.824;9.346;2023-12-04T14:10:56;18.83;;;11.47;;
1613;SDS011;800;48.824;9.346;2023-12-04T14:13:22;16.03;;;11.27;;
1613;SDS011;800;48.824;9.346;2023-12-04T14:15:48;22.90;;;12.00;;
1613;SDS011;800;48.824;9.346;2023-12-04T14:18:13;15.90;;;10.30;;
1613;SDS011;800;48.824;9.346;2023-12-04T14:20:39;16.40;;;10.13;;
1613;SDS011;800;48.824;9.346;2023-12-04T14:23:04;16.93;;;11.33;;
1613;SDS011;800;48.824;9.346;2023-12-04T14:25:30;15.40;;;11.17;;
1613;SDS011;800;48.824;9.346;2023-12-04T14:27:56;19.83;;;10.80;;
1613;SDS011;800;48.824;9.346;2023-12-04T14:30:21;17.80;;;11.83;;
1613;SDS011;800;48.824;9.346;2023-12-04T14:32:47;19.30;;;11.50;;
1613;SDS011;800;48.824;9.346;2023-12-04T14:35:13;18.43;;;11.13;;
1613;SDS011;800;48.824;9.346;2023-12-04T14:37:39;18.80;;;11.47;;
1613;SDS011;800;48.824;9.346;2023-12-04T14:40:05;14.77;;;11.40;;
1613;SDS011;800;48.824;9.346;2023-12-04T14:42:31;15.53;;;11.83;;
1613;SDS011;800;48.824;9.346;2023-12-04T14:44:57;20.10;;;12.87;;
1613;SDS011;800;48.824;9.346;2023-12-04T14:47:22;15.40;;;11.73;;
1613;SDS011;800;48.824;9.346;2023-12-04T14:49:48;16.33;;;11.27;;
1613;SDS011;800;48.824;9.346;2023-12-04T14:52:18;16.47;;;12.03;;
1613;SDS011;800;48.824;9.346;2023-12-04T14:54:46;16.10;;;10.47;;
1613;SDS011;800;48.824;9.346;2023-12-04T14:57:31;14.27;;;9.43;;
1613;SDS011;800;48.824;9.346;2023-12-04T15:00:06;16.33;;;9.97;;
1613;SDS011;800;48.824;9.346;2023-12-04T15:02:51;19.30;;;11.40;;
1613;SDS011;800;48.824;9.346;2023-12-04T15:05:35;16.40;;;10.90;;
1613;SDS011;800;48.824;9.346;2023-12-04T15:08:24;16.30;;;11.27;;
1613;SDS011;800;48.824;9.346;2023-12-04T15:10:50;12.90;;;9.40;;
1613;SDS011;800;48.824;9.346;2023-12-04T15:13:35;19.53;;;12.30;;
1613;SDS011;800;48.824;9.346;2023-12-04T15:16:06;14.33;;;10.87;;
1613;SDS011;800;48.824;9.346;2023-12-04T15:18:38;16.07;;;11.30;;